Sunday, May 27, 2018, 11:41 AM EDT
Back to Local

KBUF, Greater Buffalo International Airport

Location: Buffalo, NY, United States Lat: 42.933
Local Time: 11:41 AM EDT (15:41 GMT) Lon: -78.733
Time Zone: US/Eastern Elev: 725 ft

Show me the last for .
Show Decoded

2018-05-27 11:22 METAR KBUF 271522Z COR 00000KT 10SM FEW027 BKN032 BKN170 24/18 A2994 =
2018-05-27 10:54 METAR KBUF 271454Z 25007KT 10SM BKN025 BKN140 BKN220 BKN270 24/18 A2994 RMK AO2
                 SLP134 T02390183 50003 =
2018-05-27 10:29 METAR KBUF 271429Z 21003KT 10SM BKN025 BKN140 BKN220 BKN260 23/18 A2994 RMK AO2
                 T02330178 =
2018-05-27 09:54 METAR KBUF 271354Z VRB04KT 10SM FEW065 FEW150 SCT210 SCT260 23/18 A2994 RMK AO2
                 SLP137 T02330178 =
2018-05-27 08:54 METAR KBUF 271254Z 20007KT 10SM SCT090 SCT120 SCT190 BKN230 BKN270 22/17 A2994
                 RMK AO2 SLP134 T02170167 =
2018-05-27 07:54 METAR KBUF 271154Z 21006KT 10SM FEW065 BKN085 BKN160 BKN280 21/16 A2993 RMK AO2
                 SLP131 T02060161 10206 20189 53016 =
2018-05-27 06:54 METAR KBUF 271054Z 24003KT 10SM FEW065 SCT090 BKN160 BKN280 19/16 A2991 RMK AO2
                 SLP125 T01940156 =
2018-05-27 05:54 METAR KBUF 270954Z 00000KT 10SM FEW065 BKN085 BKN140 19/16 A2990 RMK AO2 SLP120
                 T01940161 =
2018-05-27 04:54 METAR KBUF 270854Z COR 20004KT 10SM BKN090 BKN140 19/16 A2988 RMK AO2 SLP115
                 T01940161 51003 =
2018-05-27 03:54 METAR KBUF 270754Z 18003KT 10SM BKN095 BKN159 BKN280 19/16 A2988 RMK AO2 SLP114
                 T01940161 =
2018-05-27 02:54 METAR KBUF 270654Z 18003KT 10SM BKN100 BKN140 BKN240 19/16 A2988 RMK AO2 SLP115
                 T01890161 =
2018-05-27 01:54 METAR KBUF 270554Z 14005KT 10SM SCT085 BKN130 BKN210 21/16 A2987 RMK AO2 SLP112
                 T02060156 10228 20194 58004 =
2018-05-27 00:54 METAR KBUF 270454Z 09005KT 10SM SCT090 BKN150 BKN200 21/16 A2987 RMK AO2 SLP112
                 T02060156 402500161 =
2018-05-26 23:54 METAR KBUF 270354Z 00000KT 10SM FEW100 SCT140 BKN180 20/15 A2989 RMK AO2 SLP118
                 T02000150 =
2018-05-26 22:54 METAR KBUF 270254Z 14004KT 10SM FEW140 FEW230 21/14 A2988 RMK AO2 SLP116
                 T02060144 51015 =
2018-05-26 21:54 METAR KBUF 270154Z 07005KT 10SM FEW140 FEW230 21/14 A2987 RMK AO2 SLP112
                 T02060144 =
2018-05-26 20:54 METAR KBUF 270054Z 02005KT 10SM FEW140 SCT230 22/16 A2986 RMK AO2 SLP109
                 T02220156 =
2018-05-26 19:54 METAR KBUF 262354Z 20005KT 10SM FEW140 SCT230 23/16 A2984 RMK AO2 SLP101
                 T02280161 10250 20217 53012 =
2018-05-26 18:54 METAR KBUF 262254Z 24005KT 10SM FEW140 SCT230 24/16 A2983 RMK AO2 SLP097
                 T02390156 =
2018-05-26 17:54 METAR KBUF 262154Z 24012KT 10SM FEW140 SCT230 24/16 A2981 RMK AO2 SLP093
                 T02390156 =
2018-05-26 16:54 METAR KBUF 262054Z 24010KT 10SM FEW070 SCT140 SCT230 24/15 A2980 RMK AO2 SLP090
                 T02440150 58010 =
2018-05-26 15:54 METAR KBUF 261954Z 25007KT 220V300 10SM FEW070 SCT110 BKN140 BKN230 23/15 A2983
                 RMK AO2 SLP097 T02330150 =
2018-05-26 14:54 METAR KBUF 261854Z 22008KT 10SM FEW065 OVC140 22/14 A2984 RMK AO2 SLP101
                 T02170139 =
2018-05-26 13:54 METAR KBUF 261754Z 21012KT 10SM FEW070 OVC150 23/14 A2984 RMK AO2 SLP101
                 T02330139 10244 20194 57001 =
2018-05-26 12:54 METAR KBUF 261654Z 24009KT 10SM SCT070 OVC150 23/13 A2984 RMK AO2 SLP102
                 T02280133 =
2018-05-26 11:54 METAR KBUF 261554Z 22013KT 10SM FEW070 OVC150 23/13 A2984 RMK AO2 SLP100
                 T02280128 =

Support USWX by starting your Amazon purchase here.